Glenariff, United Kingdom
Current Conditions -  °F | °C
As of 10:50 PM on Wednesday 26 Nov 2014 (Local Time) from EGAA Reporting Station
Haze Haze  
Wind Chill: 37°   Ceiling: Unl
Heat Index: 37°   Visibility: 1.2mi
Dew Point: 37°   Wind: 2mph
Humidity: 100%   Direction: 360°N
Pressure: 29.74"   Gusts: NA
Location:  55.05°N, 6.07°W
Report Text: EGAA 262250Z 36002KT 2000 R07/0450 BR FEW023 03/03 Q1007
Loading
Personal Weather Stations






























Interactive Weather Map New forecast layout! Learn more

10-Day Weather Forecast

Advertisements
Track Severe Weather on mobile